sensor_id;sensor_type;location;lat;lon;timestamp;pressure;altitude;pressure_sealevel;temperature;humidity
70370;BME280;57790;51.356;-2.906;2023-05-08T00:02:18;102120.06;;;17.11;100.00
70370;BME280;57790;51.356;-2.906;2023-05-08T00:05:18;102117.22;;;17.05;100.00
70370;BME280;57790;51.356;-2.906;2023-05-08T00:08:19;102108.16;;;17.06;100.00
70370;BME280;57790;51.356;-2.906;2023-05-08T00:11:19;102108.69;;;17.01;100.00
70370;BME280;57790;51.356;-2.906;2023-05-08T00:14:20;102111.72;;;16.98;100.00
70370;BME280;57790;51.356;-2.906;2023-05-08T00:17:20;102107.53;;;16.95;100.00
70370;BME280;57790;51.356;-2.906;2023-05-08T00:20:21;102109.69;;;16.92;100.00
70370;BME280;57790;51.356;-2.906;2023-05-08T00:23:22;102100.00;;;16.91;100.00
70370;BME280;57790;51.356;-2.906;2023-05-08T00:26:22;102094.16;;;16.87;100.00
70370;BME280;57790;51.356;-2.906;2023-05-08T00:29:22;102098.00;;;16.85;100.00
70370;BME280;57790;51.356;-2.906;2023-05-08T00:32:23;102090.63;;;16.87;100.00
70370;BME280;57790;51.356;-2.906;2023-05-08T00:35:24;102095.50;;;16.83;100.00
70370;BME280;57790;51.356;-2.906;2023-05-08T00:38:24;102098.53;;;16.80;100.00
70370;BME280;57790;51.356;-2.906;2023-05-08T00:41:25;102090.31;;;16.74;100.00
70370;BME280;57790;51.356;-2.906;2023-05-08T00:44:25;102084.97;;;16.74;100.00
70370;BME280;57790;51.356;-2.906;2023-05-08T00:47:25;102088.16;;;16.69;100.00
70370;BME280;57790;51.356;-2.906;2023-05-08T00:50:26;102085.13;;;16.64;100.00
70370;BME280;57790;51.356;-2.906;2023-05-08T00:53:27;102091.63;;;16.61;100.00
70370;BME280;57790;51.356;-2.906;2023-05-08T00:56:31;102095.31;;;16.60;100.00
70370;BME280;57790;51.356;-2.906;2023-05-08T00:59:32;102089.97;;;16.60;100.00
70370;BME280;57790;51.356;-2.906;2023-05-08T01:02:34;102090.13;;;16.59;100.00
70370;BME280;57790;51.356;-2.906;2023-05-08T01:05:35;102090.47;;;16.56;100.00
70370;BME280;57790;51.356;-2.906;2023-05-08T01:08:35;102086.31;;;16.53;100.00
70370;BME280;57790;51.356;-2.906;2023-05-08T01:11:43;102085.63;;;16.51;100.00
70370;BME280;57790;51.356;-2.906;2023-05-08T01:18:30;102070.56;;;16.42;100.00
70370;BME280;57790;51.356;-2.906;2023-05-08T01:21:59;102066.41;;;16.40;100.00
70370;BME280;57790;51.356;-2.906;2023-05-08T01:32:23;102059.03;;;16.33;100.00
70370;BME280;57790;51.356;-2.906;2023-05-08T01:35:29;102043.97;;;16.32;100.00
70370;BME280;57790;51.356;-2.906;2023-05-08T01:38:46;102049.00;;;16.27;100.00
70370;BME280;57790;51.356;-2.906;2023-05-08T01:45:14;102044.00;;;16.24;100.00
70370;BME280;57790;51.356;-2.906;2023-05-08T01:49:05;102040.97;;;16.27;100.00
70370;BME280;57790;51.356;-2.906;2023-05-08T01:51:43;102043.50;;;16.21;100.00
70370;BME280;57790;51.356;-2.906;2023-05-08T01:54:56;102044.81;;;16.17;100.00
70370;BME280;57790;51.356;-2.906;2023-05-08T01:57:58;102051.84;;;16.18;100.00
70370;BME280;57790;51.356;-2.906;2023-05-08T02:01:01;102044.47;;;16.12;100.00
70370;BME280;57790;51.356;-2.906;2023-05-08T02:04:04;102039.97;;;16.12;100.00
70370;BME280;57790;51.356;-2.906;2023-05-08T02:07:06;102033.13;;;16.10;100.00
70370;BME280;57790;51.356;-2.906;2023-05-08T02:10:07;102029.78;;;16.08;100.00
70370;BME280;57790;51.356;-2.906;2023-05-08T02:13:10;102027.28;;;16.06;100.00
70370;BME280;57790;51.356;-2.906;2023-05-08T02:16:13;102027.28;;;16.06;100.00
70370;BME280;57790;51.356;-2.906;2023-05-08T02:19:15;102028.25;;;16.05;100.00
70370;BME280;57790;51.356;-2.906;2023-05-08T02:22:17;102023.22;;;16.02;100.00
70370;BME280;57790;51.356;-2.906;2023-05-08T02:25:19;102019.06;;;15.99;100.00
70370;BME280;57790;51.356;-2.906;2023-05-08T02:28:21;102022.06;;;15.96;100.00
70370;BME280;57790;51.356;-2.906;2023-05-08T02:31:23;102019.75;;;15.93;100.00
70370;BME280;57790;51.356;-2.906;2023-05-08T02:34:24;102021.41;;;15.94;100.00
70370;BME280;57790;51.356;-2.906;2023-05-08T02:37:25;102021.75;;;15.91;100.00
70370;BME280;57790;51.356;-2.906;2023-05-08T02:40:28;102020.88;;;15.91;100.00
70370;BME280;57790;51.356;-2.906;2023-05-08T02:43:28;102024.06;;;15.86;100.00
70370;BME280;57790;51.356;-2.906;2023-05-08T02:46:45;102026.91;;;15.85;100.00
70370;BME280;57790;51.356;-2.906;2023-05-08T02:50:01;102018.88;;;15.85;100.00
70370;BME280;57790;51.356;-2.906;2023-05-08T02:53:07;102022.56;;;15.84;100.00
70370;BME280;57790;51.356;-2.906;2023-05-08T02:56:20;102017.38;;;15.82;100.00
70370;BME280;57790;51.356;-2.906;2023-05-08T02:59:30;102022.22;;;15.79;100.00
70370;BME280;57790;51.356;-2.906;2023-05-08T03:02:40;102016.53;;;15.73;100.00
70370;BME280;57790;51.356;-2.906;2023-05-08T03:05:52;102017.19;;;15.75;100.00
70370;BME280;57790;51.356;-2.906;2023-05-08T03:08:55;102009.84;;;15.69;100.00
70370;BME280;57790;51.356;-2.906;2023-05-08T03:12:03;102015.53;;;15.66;100.00
70370;BME280;57790;51.356;-2.906;2023-05-08T03:15:18;102010.50;;;15.63;100.00
70370;BME280;57790;51.356;-2.906;2023-05-08T03:18:25;102016.00;;;15.62;100.00
70370;BME280;57790;51.356;-2.906;2023-05-08T03:21:29;102012.19;;;15.64;100.00
70370;BME280;57790;51.356;-2.906;2023-05-08T03:24:30;102014.34;;;15.69;100.00
70370;BME280;57790;51.356;-2.906;2023-05-08T03:27:34;102019.53;;;15.62;100.00
70370;BME280;57790;51.356;-2.906;2023-05-08T03:30:36;102011.66;;;15.61;100.00
70370;BME280;57790;51.356;-2.906;2023-05-08T03:33:37;102012.28;;;15.55;100.00
70370;BME280;57790;51.356;-2.906;2023-05-08T03:36:40;102007.44;;;15.50;100.00
70370;BME280;57790;51.356;-2.906;2023-05-08T03:39:41;102005.06;;;15.47;100.00
70370;BME280;57790;51.356;-2.906;2023-05-08T03:42:42;102008.56;;;15.47;100.00
70370;BME280;57790;51.356;-2.906;2023-05-08T03:45:43;102007.59;;;15.48;100.00
70370;BME280;57790;51.356;-2.906;2023-05-08T03:48:46;102009.28;;;15.50;100.00
70370;BME280;57790;51.356;-2.906;2023-05-08T03:51:47;102007.09;;;15.53;100.00
70370;BME280;57790;51.356;-2.906;2023-05-08T03:54:48;102008.75;;;15.46;100.00
70370;BME280;57790;51.356;-2.906;2023-05-08T03:57:56;102002.75;;;15.52;100.00
70370;BME280;57790;51.356;-2.906;2023-05-08T04:01:24;102019.09;;;15.41;100.00
70370;BME280;57790;51.356;-2.906;2023-05-08T04:04:40;102017.22;;;15.33;100.00
70370;BME280;57790;51.356;-2.906;2023-05-08T04:07:54;102014.53;;;15.33;100.00
70370;BME280;57790;51.356;-2.906;2023-05-08T04:11:24;102011.38;;;15.30;100.00
70370;BME280;57790;51.356;-2.906;2023-05-08T04:14:30;102008.03;;;15.28;100.00
70370;BME280;57790;51.356;-2.906;2023-05-08T04:17:41;102011.88;;;15.33;100.00
70370;BME280;57790;51.356;-2.906;2023-05-08T04:20:46;102005.34;;;15.28;100.00
70370;BME280;57790;51.356;-2.906;2023-05-08T04:23:49;102007.34;;;15.26;100.00
70370;BME280;57790;51.356;-2.906;2023-05-08T04:26:50;102011.69;;;15.27;100.00
70370;BME280;57790;51.356;-2.906;2023-05-08T04:29:52;102004.34;;;15.21;100.00
70370;BME280;57790;51.356;-2.906;2023-05-08T04:32:53;102020.66;;;15.17;100.00
70370;BME280;57790;51.356;-2.906;2023-05-08T04:35:54;102010.97;;;15.16;100.00
70370;BME280;57790;51.356;-2.906;2023-05-08T04:38:56;102004.63;;;15.17;100.00
70370;BME280;57790;51.356;-2.906;2023-05-08T04:41:56;102009.31;;;15.15;100.00
70370;BME280;57790;51.356;-2.906;2023-05-08T04:45:01;102003.97;;;15.15;100.00
70370;BME280;57790;51.356;-2.906;2023-05-08T04:48:02;102002.97;;;15.08;100.00
70370;BME280;57790;51.356;-2.906;2023-05-08T04:51:03;102001.97;;;15.09;100.00
70370;BME280;57790;51.356;-2.906;2023-05-08T04:54:03;101993.09;;;15.09;100.00
70370;BME280;57790;51.356;-2.906;2023-05-08T04:57:04;101988.94;;;15.06;100.00
70370;BME280;57790;51.356;-2.906;2023-05-08T05:00:05;101996.09;;;15.06;100.00
70370;BME280;57790;51.356;-2.906;2023-05-08T05:03:05;101996.09;;;15.06;100.00
70370;BME280;57790;51.356;-2.906;2023-05-08T05:06:06;101997.41;;;15.02;100.00
70370;BME280;57790;51.356;-2.906;2023-05-08T05:09:06;101998.22;;;15.02;100.00
70370;BME280;57790;51.356;-2.906;2023-05-08T05:12:07;101990.56;;;14.99;100.00
70370;BME280;57790;51.356;-2.906;2023-05-08T05:15:08;101996.06;;;14.98;100.00
70370;BME280;57790;51.356;-2.906;2023-05-08T05:18:08;101996.38;;;14.95;100.00
70370;BME280;57790;51.356;-2.906;2023-05-08T05:21:08;101984.34;;;14.91;100.00
70370;BME280;57790;51.356;-2.906;2023-05-08T05:24:10;101985.88;;;14.93;100.00
70370;BME280;57790;51.356;-2.906;2023-05-08T05:27:11;101989.53;;;14.92;100.00
70370;BME280;57790;51.356;-2.906;2023-05-08T05:30:11;101994.56;;;14.95;100.00
70370;BME280;57790;51.356;-2.906;2023-05-08T05:33:12;101990.03;;;14.96;100.00
70370;BME280;57790;51.356;-2.906;2023-05-08T05:36:12;101986.88;;;14.92;100.00
70370;BME280;57790;51.356;-2.906;2023-05-08T05:39:12;101987.50;;;14.86;100.00
70370;BME280;57790;51.356;-2.906;2023-05-08T05:42:13;101992.81;;;14.86;100.00
70370;BME280;57790;51.356;-2.906;2023-05-08T05:45:14;101993.50;;;14.88;100.00
70370;BME280;57790;51.356;-2.906;2023-05-08T05:48:14;101985.69;;;14.95;100.00
70370;BME280;57790;51.356;-2.906;2023-05-08T05:51:14;101988.31;;;14.86;100.00
70370;BME280;57790;51.356;-2.906;2023-05-08T05:54:15;101990.81;;;14.88;100.00
70370;BME280;57790;51.356;-2.906;2023-05-08T05:57:15;101993.81;;;14.85;100.00
70370;BME280;57790;51.356;-2.906;2023-05-08T06:00:17;101997.66;;;14.82;100.00
70370;BME280;57790;51.356;-2.906;2023-05-08T06:03:17;101993.63;;;14.78;100.00
70370;BME280;57790;51.356;-2.906;2023-05-08T06:06:18;101986.47;;;14.79;100.00
70370;BME280;57790;51.356;-2.906;2023-05-08T06:09:18;101990.97;;;14.78;100.00
70370;BME280;57790;51.356;-2.906;2023-05-08T06:12:19;101988.13;;;14.80;100.00
70370;BME280;57790;51.356;-2.906;2023-05-08T06:15:20;101991.81;;;14.79;100.00
70370;BME280;57790;51.356;-2.906;2023-05-08T06:18:20;101989.66;;;14.82;100.00
70370;BME280;57790;51.356;-2.906;2023-05-08T06:21:21;101987.13;;;14.81;100.00
70370;BME280;57790;51.356;-2.906;2023-05-08T06:24:21;101994.31;;;14.80;100.00
70370;BME280;57790;51.356;-2.906;2023-05-08T06:27:22;101993.47;;;14.80;100.00
70370;BME280;57790;51.356;-2.906;2023-05-08T06:30:22;101988.31;;;14.78;100.00
70370;BME280;57790;51.356;-2.906;2023-05-08T06:33:22;101994.31;;;14.80;100.00
70370;BME280;57790;51.356;-2.906;2023-05-08T06:36:23;101985.97;;;14.83;100.00
70370;BME280;57790;51.356;-2.906;2023-05-08T06:39:23;101987.13;;;14.81;100.00
70370;BME280;57790;51.356;-2.906;2023-05-08T06:42:24;101987.97;;;14.81;100.00
70370;BME280;57790;51.356;-2.906;2023-05-08T06:45:24;101983.63;;;14.80;100.00
70370;BME280;57790;51.356;-2.906;2023-05-08T06:48:24;101981.44;;;14.76;100.00
70370;BME280;57790;51.356;-2.906;2023-05-08T06:51:28;101984.78;;;14.78;100.00
70370;BME280;57790;51.356;-2.906;2023-05-08T06:54:28;101980.59;;;14.75;100.00
70370;BME280;57790;51.356;-2.906;2023-05-08T06:57:29;101982.13;;;14.78;100.00
70370;BME280;57790;51.356;-2.906;2023-05-08T07:00:29;101992.47;;;14.81;100.00
70370;BME280;57790;51.356;-2.906;2023-05-08T07:03:30;101986.63;;;14.77;100.00
70370;BME280;57790;51.356;-2.906;2023-05-08T07:06:31;101982.97;;;14.78;100.00
70370;BME280;57790;51.356;-2.906;2023-05-08T07:09:31;101982.13;;;14.78;100.00
70370;BME280;57790;51.356;-2.906;2023-05-08T07:12:31;101988.13;;;14.80;100.00
70370;BME280;57790;51.356;-2.906;2023-05-08T07:15:32;101981.44;;;14.76;100.00
70370;BME280;57790;51.356;-2.906;2023-05-08T07:18:32;101983.75;;;14.71;100.00
70370;BME280;57790;51.356;-2.906;2023-05-08T07:21:33;101981.06;;;14.71;100.00
70370;BME280;57790;51.356;-2.906;2023-05-08T07:24:33;101988.75;;;14.74;100.00
70370;BME280;57790;51.356;-2.906;2023-05-08T07:27:34;101981.59;;;14.74;100.00
70370;BME280;57790;51.356;-2.906;2023-05-08T07:30:35;101979.06;;;14.73;100.00
70370;BME280;57790;51.356;-2.906;2023-05-08T07:33:35;101980.44;;;14.77;100.00
70370;BME280;57790;51.356;-2.906;2023-05-08T07:36:36;101977.13;;;14.83;100.00
70370;BME280;57790;51.356;-2.906;2023-05-08T07:39:37;101982.97;;;14.78;100.00
70370;BME280;57790;51.356;-2.906;2023-05-08T07:42:41;101978.63;;;14.77;100.00
70370;BME280;57790;51.356;-2.906;2023-05-08T07:45:42;101980.75;;;14.74;100.00
70370;BME280;57790;51.356;-2.906;2023-05-08T07:48:43;101982.91;;;14.70;100.00
70370;BME280;57790;51.356;-2.906;2023-05-08T07:51:43;101972.06;;;14.72;100.00
70370;BME280;57790;51.356;-2.906;2023-05-08T07:54:43;101965.56;;;14.74;100.00
70370;BME280;57790;51.356;-2.906;2023-05-08T07:57:45;101960.56;;;14.71;100.00
70370;BME280;57790;51.356;-2.906;2023-05-08T08:00:45;101959.88;;;14.69;100.00
70370;BME280;57790;51.356;-2.906;2023-05-08T08:03:46;101956.38;;;14.69;100.00
70370;BME280;57790;51.356;-2.906;2023-05-08T08:06:46;101947.38;;;14.70;100.00
70370;BME280;57790;51.356;-2.906;2023-05-08T08:09:46;101958.22;;;14.68;100.00
70370;BME280;57790;51.356;-2.906;2023-05-08T08:12:47;101954.88;;;14.66;100.00
70370;BME280;57790;51.356;-2.906;2023-05-08T08:15:47;101958.56;;;14.73;100.00
70370;BME280;57790;51.356;-2.906;2023-05-08T08:18:48;101958.38;;;14.75;100.00
70370;BME280;57790;51.356;-2.906;2023-05-08T08:21:48;101939.72;;;14.75;100.00
70370;BME280;57790;51.356;-2.906;2023-05-08T08:24:48;101952.91;;;14.76;100.00
70370;BME280;57790;51.356;-2.906;2023-05-08T08:27:49;101960.28;;;14.82;100.00
70370;BME280;57790;51.356;-2.906;2023-05-08T08:30:49;101955.59;;;14.84;100.00
70370;BME280;57790;51.356;-2.906;2023-05-08T08:33:50;101957.94;;;14.87;100.00
70370;BME280;57790;51.356;-2.906;2023-05-08T08:36:50;101951.78;;;14.87;100.00
70370;BME280;57790;51.356;-2.906;2023-05-08T08:39:51;101947.66;;;14.93;100.00
70370;BME280;57790;51.356;-2.906;2023-05-08T08:42:52;101935.13;;;14.93;100.00
70370;BME280;57790;51.356;-2.906;2023-05-08T08:45:53;101936.13;;;14.92;100.00
70370;BME280;57790;51.356;-2.906;2023-05-08T08:48:55;101937.81;;;14.93;100.00
70370;BME280;57790;51.356;-2.906;2023-05-08T08:52:01;101928.94;;;14.93;100.00
70370;BME280;57790;51.356;-2.906;2023-05-08T08:55:03;101928.94;;;14.93;100.00
70370;BME280;57790;51.356;-2.906;2023-05-08T08:59:09;101918.09;;;14.94;100.00
70370;BME280;57790;51.356;-2.906;2023-05-08T09:02:10;101922.47;;;15.03;100.00
70370;BME280;57790;51.356;-2.906;2023-05-08T09:05:11;101924.66;;;15.08;100.00
70370;BME280;57790;51.356;-2.906;2023-05-08T09:08:12;101917.47;;;15.08;100.00
70370;BME280;57790;51.356;-2.906;2023-05-08T09:11:12;101915.66;;;15.09;100.00
70370;BME280;57790;51.356;-2.906;2023-05-08T09:14:13;101921.50;;;15.12;100.00
70370;BME280;57790;51.356;-2.906;2023-05-08T09:17:13;101922.16;;;15.14;100.00
70370;BME280;57790;51.356;-2.906;2023-05-08T09:20:14;101933.50;;;15.16;100.00
70370;BME280;57790;51.356;-2.906;2023-05-08T09:23:15;101934.19;;;15.10;100.00
70370;BME280;57790;51.356;-2.906;2023-05-08T09:26:26;101935.34;;;15.08;100.00
70370;BME280;57790;51.356;-2.906;2023-05-08T09:29:26;101932.00;;;15.06;100.00
70370;BME280;57790;51.356;-2.906;2023-05-08T09:32:28;101942.19;;;15.10;100.00
70370;BME280;57790;51.356;-2.906;2023-05-08T09:35:34;101946.88;;;15.08;100.00
70370;BME280;57790;51.356;-2.906;2023-05-08T09:38:37;101932.13;;;15.04;100.00
70370;BME280;57790;51.356;-2.906;2023-05-08T09:41:37;101931.63;;;15.01;100.00
70370;BME280;57790;51.356;-2.906;2023-05-08T09:44:54;101922.78;;;15.00;100.00
70370;BME280;57790;51.356;-2.906;2023-05-08T09:47:54;101912.09;;;15.00;100.00
70370;BME280;57790;51.356;-2.906;2023-05-08T09:51:04;101910.09;;;15.02;100.00
70370;BME280;57790;51.356;-2.906;2023-05-08T09:54:16;101912.09;;;15.00;100.00
70370;BME280;57790;51.356;-2.906;2023-05-08T09:57:17;101918.13;;;15.02;100.00
70370;BME280;57790;51.356;-2.906;2023-05-08T10:00:17;101923.44;;;15.02;100.00
70370;BME280;57790;51.356;-2.906;2023-05-08T10:03:18;101923.28;;;15.04;100.00
70370;BME280;57790;51.356;-2.906;2023-05-08T10:06:19;101921.31;;;15.06;100.00
70370;BME280;57790;51.356;-2.906;2023-05-08T10:09:19;101922.16;;;15.06;100.00
70370;BME280;57790;51.356;-2.906;2023-05-08T10:12:20;101921.66;;;15.11;100.00
70370;BME280;57790;51.356;-2.906;2023-05-08T10:15:27;101921.00;;;15.09;100.00
70370;BME280;57790;51.356;-2.906;2023-05-08T10:18:29;101917.31;;;15.10;100.00
70370;BME280;57790;51.356;-2.906;2023-05-08T10:21:35;101906.63;;;15.10;100.00
70370;BME280;57790;51.356;-2.906;2023-05-08T10:24:38;101891.44;;;15.10;100.00
70370;BME280;57790;51.356;-2.906;2023-05-08T10:28:35;101898.78;;;15.08;100.00
70370;BME280;57790;51.356;-2.906;2023-05-08T10:31:17;101908.31;;;15.11;100.00
70370;BME280;57790;51.356;-2.906;2023-05-08T10:34:21;101886.75;;;15.12;100.00
70370;BME280;57790;51.356;-2.906;2023-05-08T10:37:23;101875.22;;;15.04;100.00
70370;BME280;57790;51.356;-2.906;2023-05-08T10:40:23;101881.09;;;15.07;100.00
70370;BME280;57790;51.356;-2.906;2023-05-08T10:43:24;101895.63;;;15.13;100.00
70370;BME280;57790;51.356;-2.906;2023-05-08T10:46:32;101895.13;;;15.09;100.00
70370;BME280;57790;51.356;-2.906;2023-05-08T10:49:44;101900.13;;;15.12;100.00
70370;BME280;57790;51.356;-2.906;2023-05-08T10:52:58;101902.28;;;15.17;100.00
70370;BME280;57790;51.356;-2.906;2023-05-08T10:56:03;101892.44;;;15.17;100.00
70370;BME280;57790;51.356;-2.906;2023-05-08T10:59:04;101899.63;;;15.17;100.00
70370;BME280;57790;51.356;-2.906;2023-05-08T11:02:06;101893.78;;;15.13;100.00
70370;BME280;57790;51.356;-2.906;2023-05-08T11:05:16;101890.47;;;15.20;100.00
70370;BME280;57790;51.356;-2.906;2023-05-08T11:08:21;101882.28;;;15.21;100.00
70370;BME280;57790;51.356;-2.906;2023-05-08T11:11:30;101873.28;;;15.22;100.00
70370;BME280;57790;51.356;-2.906;2023-05-08T11:14:35;101877.78;;;15.30;100.00
70370;BME280;57790;51.356;-2.906;2023-05-08T11:17:35;101883.81;;;15.40;100.00
70370;BME280;57790;51.356;-2.906;2023-05-08T11:20:39;101886.50;;;15.48;100.00
70370;BME280;57790;51.356;-2.906;2023-05-08T11:23:40;101885.31;;;15.51;100.00
70370;BME280;57790;51.356;-2.906;2023-05-08T11:26:47;101887.31;;;15.57;100.00
70370;BME280;57790;51.356;-2.906;2023-05-08T11:30:24;101878.81;;;15.61;100.00
70370;BME280;57790;51.356;-2.906;2023-05-08T11:33:29;101870.81;;;15.69;100.00
70370;BME280;57790;51.356;-2.906;2023-05-08T11:36:29;101872.78;;;15.75;100.00
70370;BME280;57790;51.356;-2.906;2023-05-08T11:39:30;101874.47;;;15.76;100.00
70370;BME280;57790;51.356;-2.906;2023-05-08T11:45:31;101878.84;;;15.77;100.00
70370;BME280;57790;51.356;-2.906;2023-05-08T11:48:34;101865.97;;;15.81;100.00
70370;BME280;57790;51.356;-2.906;2023-05-08T11:51:35;101848.25;;;15.80;100.00
70370;BME280;57790;51.356;-2.906;2023-05-08T11:54:35;101858.78;;;15.82;100.00
70370;BME280;57790;51.356;-2.906;2023-05-08T11:57:36;101855.91;;;15.83;100.00
70370;BME280;57790;51.356;-2.906;2023-05-08T12:00:42;101857.25;;;15.87;100.00
70370;BME280;57790;51.356;-2.906;2023-05-08T12:03:47;101864.78;;;15.92;100.00
70370;BME280;57790;51.356;-2.906;2023-05-08T12:06:56;101860.75;;;15.96;100.00
70370;BME280;57790;51.356;-2.906;2023-05-08T12:09:56;101854.56;;;15.95;100.00
70370;BME280;57790;51.356;-2.906;2023-05-08T12:12:57;101848.22;;;15.96;100.00
70370;BME280;57790;51.356;-2.906;2023-05-08T12:15:59;101851.38;;;16.00;100.00
70370;BME280;57790;51.356;-2.906;2023-05-08T12:18:59;101856.06;;;16.06;100.00
70370;BME280;57790;51.356;-2.906;2023-05-08T12:22:00;101856.72;;;16.08;100.00
70370;BME280;57790;51.356;-2.906;2023-05-08T12:25:03;101847.69;;;16.09;100.00
70370;BME280;57790;51.356;-2.906;2023-05-08T12:28:07;101842.69;;;16.06;100.00
70370;BME280;57790;51.356;-2.906;2023-05-08T12:31:07;101840.66;;;16.08;100.00
70370;BME280;57790;51.356;-2.906;2023-05-08T12:34:08;101833.97;;;16.12;100.00
70370;BME280;57790;51.356;-2.906;2023-05-08T12:37:09;101817.91;;;16.12;100.00
70370;BME280;57790;51.356;-2.906;2023-05-08T12:40:24;101820.59;;;16.12;100.00
70370;BME280;57790;51.356;-2.906;2023-05-08T12:43:33;101811.38;;;16.15;100.00
70370;BME280;57790;51.356;-2.906;2023-05-08T12:46:34;101813.03;;;16.16;100.00
70370;BME280;57790;51.356;-2.906;2023-05-08T12:49:36;101806.84;;;16.15;100.00
70370;BME280;57790;51.356;-2.906;2023-05-08T12:52:36;101816.38;;;16.18;100.00
70370;BME280;57790;51.356;-2.906;2023-05-08T12:55:38;101815.03;;;16.22;100.00
70370;BME280;57790;51.356;-2.906;2023-05-08T12:58:39;101807.84;;;16.22;100.00
70370;BME280;57790;51.356;-2.906;2023-05-08T13:01:40;101800.00;;;16.21;100.00
70370;BME280;57790;51.356;-2.906;2023-05-08T13:04:40;101792.63;;;16.23;100.00
70370;BME280;57790;51.356;-2.906;2023-05-08T13:07:40;101788.09;;;16.23;100.00
70370;BME280;57790;51.356;-2.906;2023-05-08T13:10:53;101786.56;;;16.29;100.00
70370;BME280;57790;51.356;-2.906;2023-05-08T13:13:54;101785.56;;;16.30;100.00
70370;BME280;57790;51.356;-2.906;2023-05-08T13:16:54;101773.34;;;16.35;100.00
70370;BME280;57790;51.356;-2.906;2023-05-08T13:19:55;101776.00;;;16.35;100.00
70370;BME280;57790;51.356;-2.906;2023-05-08T13:22:55;101782.19;;;16.36;100.00
70370;BME280;57790;51.356;-2.906;2023-05-08T13:25:55;101775.00;;;16.36;100.00
70370;BME280;57790;51.356;-2.906;2023-05-08T13:28:56;101774.81;;;16.38;100.00
70370;BME280;57790;51.356;-2.906;2023-05-08T13:31:56;101775.66;;;16.39;100.00
70370;BME280;57790;51.356;-2.906;2023-05-08T13:34:57;101778.81;;;16.42;100.00
70370;BME280;57790;51.356;-2.906;2023-05-08T13:37:58;101775.59;;;16.47;100.00
70370;BME280;57790;51.356;-2.906;2023-05-08T13:40:58;101772.09;;;16.46;100.00
70370;BME280;57790;51.356;-2.906;2023-05-08T13:43:58;101773.94;;;16.46;100.00
70370;BME280;57790;51.356;-2.906;2023-05-08T13:46:59;101778.28;;;16.47;100.00
70370;BME280;57790;51.356;-2.906;2023-05-08T13:49:59;101778.81;;;16.42;100.00
70370;BME280;57790;51.356;-2.906;2023-05-08T13:53:00;101773.75;;;16.47;100.00
70370;BME280;57790;51.356;-2.906;2023-05-08T13:56:00;101769.22;;;16.48;100.00
70370;BME280;57790;51.356;-2.906;2023-05-08T13:59:00;101774.59;;;16.48;100.00
70370;BME280;57790;51.356;-2.906;2023-05-08T14:02:01;101771.25;;;16.46;100.00
70370;BME280;57790;51.356;-2.906;2023-05-08T14:05:02;101766.72;;;16.46;100.00
70370;BME280;57790;51.356;-2.906;2023-05-08T14:08:02;101765.91;;;16.46;100.00
70370;BME280;57790;51.356;-2.906;2023-05-08T14:11:03;101764.22;;;16.45;100.00
70370;BME280;57790;51.356;-2.906;2023-05-08T14:14:03;101758.41;;;16.41;100.00
70370;BME280;57790;51.356;-2.906;2023-05-08T14:17:04;101762.75;;;16.42;100.00
70370;BME280;57790;51.356;-2.906;2023-05-08T14:20:05;101761.25;;;16.40;100.00
70370;BME280;57790;51.356;-2.906;2023-05-08T14:23:06;101768.47;;;16.39;100.00
70370;BME280;57790;51.356;-2.906;2023-05-08T14:26:06;101765.25;;;16.44;100.00
70370;BME280;57790;51.356;-2.906;2023-05-08T14:29:07;101765.78;;;16.39;100.00
70370;BME280;57790;51.356;-2.906;2023-05-08T14:32:07;101755.44;;;16.36;100.00
70370;BME280;57790;51.356;-2.906;2023-05-08T14:35:10;101751.94;;;16.35;100.00
70370;BME280;57790;51.356;-2.906;2023-05-08T14:38:10;101758.25;;;16.34;100.00
70370;BME280;57790;51.356;-2.906;2023-05-08T14:41:11;101760.78;;;16.36;100.00
70370;BME280;57790;51.356;-2.906;2023-05-08T14:44:11;101754.09;;;16.32;100.00
70370;BME280;57790;51.356;-2.906;2023-05-08T14:47:11;101753.78;;;16.27;100.00
70370;BME280;57790;51.356;-2.906;2023-05-08T14:50:12;101750.66;;;16.23;100.00
70370;BME280;57790;51.356;-2.906;2023-05-08T14:53:12;101747.31;;;16.21;100.00
70370;BME280;57790;51.356;-2.906;2023-05-08T14:56:13;101749.31;;;16.19;100.00
70370;BME280;57790;51.356;-2.906;2023-05-08T14:59:13;101754.66;;;16.19;100.00
70370;BME280;57790;51.356;-2.906;2023-05-08T15:02:14;101753.81;;;16.19;100.00
70370;BME280;57790;51.356;-2.906;2023-05-08T15:05:16;101751.16;;;16.19;100.00
70370;BME280;57790;51.356;-2.906;2023-05-08T15:08:16;101751.16;;;16.19;100.00
70370;BME280;57790;51.356;-2.906;2023-05-08T15:11:16;101748.00;;;16.15;100.00
70370;BME280;57790;51.356;-2.906;2023-05-08T15:14:17;101749.00;;;16.14;100.00
70370;BME280;57790;51.356;-2.906;2023-05-08T15:17:17;101746.31;;;16.14;100.00
70370;BME280;57790;51.356;-2.906;2023-05-08T15:20:18;101743.66;;;16.14;100.00
70370;BME280;57790;51.356;-2.906;2023-05-08T15:23:20;101748.00;;;16.15;100.00
70370;BME280;57790;51.356;-2.906;2023-05-08T15:26:21;101737.47;;;16.14;100.00
70370;BME280;57790;51.356;-2.906;2023-05-08T15:29:21;101739.31;;;16.13;100.00
70370;BME280;57790;51.356;-2.906;2023-05-08T15:32:22;101745.66;;;16.12;100.00
70370;BME280;57790;51.356;-2.906;2023-05-08T15:35:22;101741.16;;;16.13;100.00
70370;BME280;57790;51.356;-2.906;2023-05-08T15:38:23;101744.84;;;16.12;100.00
70370;BME280;57790;51.356;-2.906;2023-05-08T15:41:24;101739.31;;;16.13;100.00
70370;BME280;57790;51.356;-2.906;2023-05-08T15:44:24;101729.13;;;16.09;100.00
70370;BME280;57790;51.356;-2.906;2023-05-08T15:47:25;101742.50;;;16.09;100.00
70370;BME280;57790;51.356;-2.906;2023-05-08T15:50:28;101729.13;;;16.09;100.00